sensor_id;sensor_type;location;lat;lon;timestamp;temperature;humidity
31391;DHT22;18022;45.492;11.548;2023-09-19T00:01:21;22.20;99.90
31391;DHT22;18022;45.492;11.548;2023-09-19T00:03:48;22.10;99.90
31391;DHT22;18022;45.492;11.548;2023-09-19T00:06:13;22.20;99.90
31391;DHT22;18022;45.492;11.548;2023-09-19T00:08:39;22.20;99.90
31391;DHT22;18022;45.492;11.548;2023-09-19T00:11:05;22.10;99.90
31391;DHT22;18022;45.492;11.548;2023-09-19T00:13:32;22.10;99.90
31391;DHT22;18022;45.492;11.548;2023-09-19T00:15:57;22.10;99.90
31391;DHT22;18022;45.492;11.548;2023-09-19T00:18:24;22.10;99.90
31391;DHT22;18022;45.492;11.548;2023-09-19T00:20:57;22.10;99.90
31391;DHT22;18022;45.492;11.548;2023-09-19T00:23:23;22.00;99.90
31391;DHT22;18022;45.492;11.548;2023-09-19T00:25:50;22.10;99.90
31391;DHT22;18022;45.492;11.548;2023-09-19T00:28:17;22.10;99.90
31391;DHT22;18022;45.492;11.548;2023-09-19T00:30:44;22.00;99.90
31391;DHT22;18022;45.492;11.548;2023-09-19T00:33:11;22.00;99.90
31391;DHT22;18022;45.492;11.548;2023-09-19T00:35:53;22.00;99.90
31391;DHT22;18022;45.492;11.548;2023-09-19T00:38:20;22.00;99.90
31391;DHT22;18022;45.492;11.548;2023-09-19T00:40:48;22.00;99.90
31391;DHT22;18022;45.492;11.548;2023-09-19T00:43:14;22.00;99.90
31391;DHT22;18022;45.492;11.548;2023-09-19T00:45:45;22.10;99.90
31391;DHT22;18022;45.492;11.548;2023-09-19T00:48:11;22.20;99.90
31391;DHT22;18022;45.492;11.548;2023-09-19T00:50:37;22.10;99.90
31391;DHT22;18022;45.492;11.548;2023-09-19T00:53:07;22.10;99.90
31391;DHT22;18022;45.492;11.548;2023-09-19T00:55:34;22.10;99.90
31391;DHT22;18022;45.492;11.548;2023-09-19T00:58:00;22.10;99.90
31391;DHT22;18022;45.492;11.548;2023-09-19T01:00:26;22.20;99.90
31391;DHT22;18022;45.492;11.548;2023-09-19T01:02:52;22.20;99.90
31391;DHT22;18022;45.492;11.548;2023-09-19T01:05:18;22.20;99.90
31391;DHT22;18022;45.492;11.548;2023-09-19T01:07:44;22.10;99.90
31391;DHT22;18022;45.492;11.548;2023-09-19T01:10:16;22.10;99.90
31391;DHT22;18022;45.492;11.548;2023-09-19T01:13:12;22.00;99.90
31391;DHT22;18022;45.492;11.548;2023-09-19T01:21:03;22.00;99.90
31391;DHT22;18022;45.492;11.548;2023-09-19T01:26:56;22.00;99.90
31391;DHT22;18022;45.492;11.548;2023-09-19T01:32:06;22.00;99.90
31391;DHT22;18022;45.492;11.548;2023-09-19T01:34:55;22.00;99.90
31391;DHT22;18022;45.492;11.548;2023-09-19T01:37:30;22.00;99.90
31391;DHT22;18022;45.492;11.548;2023-09-19T01:40:06;22.00;99.90
31391;DHT22;18022;45.492;11.548;2023-09-19T01:43:07;22.00;99.90
31391;DHT22;18022;45.492;11.548;2023-09-19T01:45:48;22.10;99.90
31391;DHT22;18022;45.492;11.548;2023-09-19T01:51:06;22.10;99.90
31391;DHT22;18022;45.492;11.548;2023-09-19T01:56:24;22.20;99.90
31391;DHT22;18022;45.492;11.548;2023-09-19T01:58:55;22.10;99.90
31391;DHT22;18022;45.492;11.548;2023-09-19T02:01:22;22.10;99.90
31391;DHT22;18022;45.492;11.548;2023-09-19T02:03:50;22.10;99.90
31391;DHT22;18022;45.492;11.548;2023-09-19T02:06:16;22.20;99.90
31391;DHT22;18022;45.492;11.548;2023-09-19T02:08:43;22.20;99.90
31391;DHT22;18022;45.492;11.548;2023-09-19T02:11:13;22.20;99.90
31391;DHT22;18022;45.492;11.548;2023-09-19T02:13:39;22.20;99.90
31391;DHT22;18022;45.492;11.548;2023-09-19T02:16:06;22.30;99.90
31391;DHT22;18022;45.492;11.548;2023-09-19T02:18:32;22.30;99.90
31391;DHT22;18022;45.492;11.548;2023-09-19T02:21:01;22.30;99.90
31391;DHT22;18022;45.492;11.548;2023-09-19T02:23:27;22.30;99.90
31391;DHT22;18022;45.492;11.548;2023-09-19T02:25:56;22.30;99.90
31391;DHT22;18022;45.492;11.548;2023-09-19T02:28:29;22.30;99.90
31391;DHT22;18022;45.492;11.548;2023-09-19T02:30:58;22.30;99.90
31391;DHT22;18022;45.492;11.548;2023-09-19T02:33:24;22.30;99.90
31391;DHT22;18022;45.492;11.548;2023-09-19T02:35:55;22.30;99.90
31391;DHT22;18022;45.492;11.548;2023-09-19T02:38:23;22.30;99.90
31391;DHT22;18022;45.492;11.548;2023-09-19T02:40:50;22.30;99.90
31391;DHT22;18022;45.492;11.548;2023-09-19T02:43:16;22.20;99.90
31391;DHT22;18022;45.492;11.548;2023-09-19T02:45:42;22.30;99.90
31391;DHT22;18022;45.492;11.548;2023-09-19T02:48:08;22.20;99.90
31391;DHT22;18022;45.492;11.548;2023-09-19T02:50:34;22.20;99.90
31391;DHT22;18022;45.492;11.548;2023-09-19T02:53:00;22.10;99.90
31391;DHT22;18022;45.492;11.548;2023-09-19T02:55:26;22.10;99.90
31391;DHT22;18022;45.492;11.548;2023-09-19T02:57:53;22.10;99.90
31391;DHT22;18022;45.492;11.548;2023-09-19T03:00:22;22.10;99.90
31391;DHT22;18022;45.492;11.548;2023-09-19T03:02:53;22.10;99.90
31391;DHT22;18022;45.492;11.548;2023-09-19T03:05:20;22.00;99.90
31391;DHT22;18022;45.492;11.548;2023-09-19T03:07:47;22.00;99.90
31391;DHT22;18022;45.492;11.548;2023-09-19T03:10:16;22.00;99.90
31391;DHT22;18022;45.492;11.548;2023-09-19T03:12:42;22.00;99.90
31391;DHT22;18022;45.492;11.548;2023-09-19T03:15:08;22.00;99.90
31391;DHT22;18022;45.492;11.548;2023-09-19T03:17:34;22.00;99.90
31391;DHT22;18022;45.492;11.548;2023-09-19T03:20:00;21.90;99.90
31391;DHT22;18022;45.492;11.548;2023-09-19T03:22:29;21.90;99.90
31391;DHT22;18022;45.492;11.548;2023-09-19T03:24:54;22.00;99.90
31391;DHT22;18022;45.492;11.548;2023-09-19T03:27:20;21.90;99.90
31391;DHT22;18022;45.492;11.548;2023-09-19T03:29:46;21.90;99.90
31391;DHT22;18022;45.492;11.548;2023-09-19T03:32:12;22.00;99.90
31391;DHT22;18022;45.492;11.548;2023-09-19T03:34:39;21.90;99.90
31391;DHT22;18022;45.492;11.548;2023-09-19T03:37:09;21.80;99.90
31391;DHT22;18022;45.492;11.548;2023-09-19T03:39:34;21.90;99.90
31391;DHT22;18022;45.492;11.548;2023-09-19T03:42:01;21.90;99.90
31391;DHT22;18022;45.492;11.548;2023-09-19T03:44:26;21.90;99.90
31391;DHT22;18022;45.492;11.548;2023-09-19T03:46:52;21.90;99.90
31391;DHT22;18022;45.492;11.548;2023-09-19T03:49:18;21.90;99.90
31391;DHT22;18022;45.492;11.548;2023-09-19T03:51:44;21.90;99.90
31391;DHT22;18022;45.492;11.548;2023-09-19T03:54:10;21.80;99.90
31391;DHT22;18022;45.492;11.548;2023-09-19T03:56:35;21.80;99.90
31391;DHT22;18022;45.492;11.548;2023-09-19T03:59:01;21.90;99.90
31391;DHT22;18022;45.492;11.548;2023-09-19T04:01:27;21.90;99.90
31391;DHT22;18022;45.492;11.548;2023-09-19T04:03:53;21.90;99.90
31391;DHT22;18022;45.492;11.548;2023-09-19T04:06:19;21.80;99.90
31391;DHT22;18022;45.492;11.548;2023-09-19T04:08:45;21.80;99.90
31391;DHT22;18022;45.492;11.548;2023-09-19T04:11:12;21.80;99.90
31391;DHT22;18022;45.492;11.548;2023-09-19T04:13:38;21.80;99.90
31391;DHT22;18022;45.492;11.548;2023-09-19T04:16:04;21.80;99.90
31391;DHT22;18022;45.492;11.548;2023-09-19T04:18:30;21.70;99.90
31391;DHT22;18022;45.492;11.548;2023-09-19T04:21:02;21.80;99.90
31391;DHT22;18022;45.492;11.548;2023-09-19T04:23:29;21.80;99.90
31391;DHT22;18022;45.492;11.548;2023-09-19T04:25:56;21.80;99.90
31391;DHT22;18022;45.492;11.548;2023-09-19T04:28:22;21.80;99.90
31391;DHT22;18022;45.492;11.548;2023-09-19T04:30:48;21.70;99.90
31391;DHT22;18022;45.492;11.548;2023-09-19T04:33:14;21.80;99.90
31391;DHT22;18022;45.492;11.548;2023-09-19T04:35:40;21.60;99.90
31391;DHT22;18022;45.492;11.548;2023-09-19T04:38:08;21.40;99.90
31391;DHT22;18022;45.492;11.548;2023-09-19T04:40:34;21.50;99.90
31391;DHT22;18022;45.492;11.548;2023-09-19T04:43:00;21.60;99.90
31391;DHT22;18022;45.492;11.548;2023-09-19T04:45:27;21.70;99.90
31391;DHT22;18022;45.492;11.548;2023-09-19T04:47:53;21.70;99.90
31391;DHT22;18022;45.492;11.548;2023-09-19T04:50:19;21.70;99.90
31391;DHT22;18022;45.492;11.548;2023-09-19T04:52:50;21.50;99.90
31391;DHT22;18022;45.492;11.548;2023-09-19T04:55:17;21.30;99.90
31391;DHT22;18022;45.492;11.548;2023-09-19T04:57:50;21.20;99.90
31391;DHT22;18022;45.492;11.548;2023-09-19T05:00:20;20.90;99.90
31391;DHT22;18022;45.492;11.548;2023-09-19T05:02:52;20.80;99.90
31391;DHT22;18022;45.492;11.548;2023-09-19T05:05:18;20.80;99.90
31391;DHT22;18022;45.492;11.548;2023-09-19T05:07:45;20.70;99.90
31391;DHT22;18022;45.492;11.548;2023-09-19T05:10:11;20.60;99.90
31391;DHT22;18022;45.492;11.548;2023-09-19T05:12:38;20.30;99.90
31391;DHT22;18022;45.492;11.548;2023-09-19T05:15:05;20.20;99.90
31391;DHT22;18022;45.492;11.548;2023-09-19T05:17:32;20.20;99.90
31391;DHT22;18022;45.492;11.548;2023-09-19T05:19:59;20.10;99.90
31391;DHT22;18022;45.492;11.548;2023-09-19T05:22:31;20.00;99.90
31391;DHT22;18022;45.492;11.548;2023-09-19T05:25:00;19.90;99.90
31391;DHT22;18022;45.492;11.548;2023-09-19T05:27:25;20.00;99.90
31391;DHT22;18022;45.492;11.548;2023-09-19T05:29:51;20.10;99.90
31391;DHT22;18022;45.492;11.548;2023-09-19T05:32:19;20.10;99.90
31391;DHT22;18022;45.492;11.548;2023-09-19T05:34:45;20.20;99.90
31391;DHT22;18022;45.492;11.548;2023-09-19T05:37:13;20.20;99.90
31391;DHT22;18022;45.492;11.548;2023-09-19T05:39:41;20.30;99.90
31391;DHT22;18022;45.492;11.548;2023-09-19T05:42:07;20.40;99.90
31391;DHT22;18022;45.492;11.548;2023-09-19T05:44:33;20.50;99.90
31391;DHT22;18022;45.492;11.548;2023-09-19T05:46:59;20.60;99.90
31391;DHT22;18022;45.492;11.548;2023-09-19T05:49:25;20.60;99.90
31391;DHT22;18022;45.492;11.548;2023-09-19T05:51:51;20.60;99.90
31391;DHT22;18022;45.492;11.548;2023-09-19T05:54:19;20.60;99.90
31391;DHT22;18022;45.492;11.548;2023-09-19T05:56:45;20.70;99.90
31391;DHT22;18022;45.492;11.548;2023-09-19T05:59:14;20.60;99.90
31391;DHT22;18022;45.492;11.548;2023-09-19T06:01:45;20.70;99.90
31391;DHT22;18022;45.492;11.548;2023-09-19T06:04:12;20.70;99.90
31391;DHT22;18022;45.492;11.548;2023-09-19T06:06:38;20.60;99.90
31391;DHT22;18022;45.492;11.548;2023-09-19T06:09:06;20.50;99.90
31391;DHT22;18022;45.492;11.548;2023-09-19T06:11:36;20.60;99.90
31391;DHT22;18022;45.492;11.548;2023-09-19T06:14:03;20.60;99.90
31391;DHT22;18022;45.492;11.548;2023-09-19T06:16:31;20.60;99.90
31391;DHT22;18022;45.492;11.548;2023-09-19T06:19:00;20.70;99.90
31391;DHT22;18022;45.492;11.548;2023-09-19T06:21:27;20.70;99.90
31391;DHT22;18022;45.492;11.548;2023-09-19T06:24:00;20.80;99.90
31391;DHT22;18022;45.492;11.548;2023-09-19T06:26:26;20.90;99.90
31391;DHT22;18022;45.492;11.548;2023-09-19T06:28:56;21.10;99.90
31391;DHT22;18022;45.492;11.548;2023-09-19T06:31:22;21.30;99.90
31391;DHT22;18022;45.492;11.548;2023-09-19T06:33:51;21.50;99.90
31391;DHT22;18022;45.492;11.548;2023-09-19T06:36:17;22.30;99.90
31391;DHT22;18022;45.492;11.548;2023-09-19T06:38:44;22.60;99.90
31391;DHT22;18022;45.492;11.548;2023-09-19T06:41:10;22.80;99.90
31391;DHT22;18022;45.492;11.548;2023-09-19T06:43:37;22.30;99.90
31391;DHT22;18022;45.492;11.548;2023-09-19T06:46:02;21.90;99.90
31391;DHT22;18022;45.492;11.548;2023-09-19T06:48:29;21.70;99.90
31391;DHT22;18022;45.492;11.548;2023-09-19T06:50:58;21.70;99.90
31391;DHT22;18022;45.492;11.548;2023-09-19T06:53:28;21.70;99.90
31391;DHT22;18022;45.492;11.548;2023-09-19T06:55:57;21.80;99.90
31391;DHT22;18022;45.492;11.548;2023-09-19T06:58:23;21.80;99.90
31391;DHT22;18022;45.492;11.548;2023-09-19T07:00:49;21.80;99.90
31391;DHT22;18022;45.492;11.548;2023-09-19T07:03:16;21.80;99.90
31391;DHT22;18022;45.492;11.548;2023-09-19T07:05:44;21.90;99.90
31391;DHT22;18022;45.492;11.548;2023-09-19T07:08:10;21.90;99.90
31391;DHT22;18022;45.492;11.548;2023-09-19T07:10:38;22.00;99.90
31391;DHT22;18022;45.492;11.548;2023-09-19T07:13:07;22.00;99.90
31391;DHT22;18022;45.492;11.548;2023-09-19T07:15:36;22.20;99.90
31391;DHT22;18022;45.492;11.548;2023-09-19T07:18:05;22.20;99.90
31391;DHT22;18022;45.492;11.548;2023-09-19T07:20:31;22.20;99.90
31391;DHT22;18022;45.492;11.548;2023-09-19T07:23:01;22.30;99.90
31391;DHT22;18022;45.492;11.548;2023-09-19T07:25:27;22.30;99.90
31391;DHT22;18022;45.492;11.548;2023-09-19T07:28:00;22.30;99.90
31391;DHT22;18022;45.492;11.548;2023-09-19T07:30:26;22.40;99.90
31391;DHT22;18022;45.492;11.548;2023-09-19T07:32:52;22.40;99.90
31391;DHT22;18022;45.492;11.548;2023-09-19T07:35:18;22.60;99.90
31391;DHT22;18022;45.492;11.548;2023-09-19T07:37:46;22.60;99.90
31391;DHT22;18022;45.492;11.548;2023-09-19T07:40:15;22.60;99.90
31391;DHT22;18022;45.492;11.548;2023-09-19T07:42:41;22.60;99.90
31391;DHT22;18022;45.492;11.548;2023-09-19T07:45:08;22.60;99.90
31391;DHT22;18022;45.492;11.548;2023-09-19T07:47:34;22.70;99.90
31391;DHT22;18022;45.492;11.548;2023-09-19T07:50:01;22.70;99.90
31391;DHT22;18022;45.492;11.548;2023-09-19T07:52:28;22.70;99.90
31391;DHT22;18022;45.492;11.548;2023-09-19T07:54:55;22.70;99.90
31391;DHT22;18022;45.492;11.548;2023-09-19T07:57:22;22.70;99.90
31391;DHT22;18022;45.492;11.548;2023-09-19T07:59:48;22.80;99.90
31391;DHT22;18022;45.492;11.548;2023-09-19T08:02:14;22.90;99.90
31391;DHT22;18022;45.492;11.548;2023-09-19T08:04:44;22.90;99.90
31391;DHT22;18022;45.492;11.548;2023-09-19T08:07:12;22.90;99.90
31391;DHT22;18022;45.492;11.548;2023-09-19T08:09:38;23.00;99.90
31391;DHT22;18022;45.492;11.548;2023-09-19T08:12:05;23.10;99.90
31391;DHT22;18022;45.492;11.548;2023-09-19T08:14:33;23.20;99.90
31391;DHT22;18022;45.492;11.548;2023-09-19T08:16:59;23.20;99.90
31391;DHT22;18022;45.492;11.548;2023-09-19T08:19:26;23.20;99.90
31391;DHT22;18022;45.492;11.548;2023-09-19T08:21:58;23.30;99.90
31391;DHT22;18022;45.492;11.548;2023-09-19T08:24:28;23.40;99.90
31391;DHT22;18022;45.492;11.548;2023-09-19T08:26:54;23.60;99.90
31391;DHT22;18022;45.492;11.548;2023-09-19T08:29:21;23.70;99.90
31391;DHT22;18022;45.492;11.548;2023-09-19T08:31:55;23.80;99.90
31391;DHT22;18022;45.492;11.548;2023-09-19T08:34:24;23.80;99.90
31391;DHT22;18022;45.492;11.548;2023-09-19T08:36:54;23.80;99.90
31391;DHT22;18022;45.492;11.548;2023-09-19T08:39:23;23.80;99.90
31391;DHT22;18022;45.492;11.548;2023-09-19T08:41:49;23.90;99.90
31391;DHT22;18022;45.492;11.548;2023-09-19T08:44:16;24.00;99.90
31391;DHT22;18022;45.492;11.548;2023-09-19T08:46:42;24.00;99.90
31391;DHT22;18022;45.492;11.548;2023-09-19T08:49:19;24.00;99.90
31391;DHT22;18022;45.492;11.548;2023-09-19T08:51:54;24.10;99.90
31391;DHT22;18022;45.492;11.548;2023-09-19T08:54:29;24.20;99.90
31391;DHT22;18022;45.492;11.548;2023-09-19T08:57:00;24.50;99.90
31391;DHT22;18022;45.492;11.548;2023-09-19T08:59:29;24.40;99.90
31391;DHT22;18022;45.492;11.548;2023-09-19T09:01:56;24.40;99.90
31391;DHT22;18022;45.492;11.548;2023-09-19T09:04:22;24.60;99.90
31391;DHT22;18022;45.492;11.548;2023-09-19T09:06:50;24.80;99.90
31391;DHT22;18022;45.492;11.548;2023-09-19T09:09:19;24.90;99.90
31391;DHT22;18022;45.492;11.548;2023-09-19T09:11:45;24.70;99.90
31391;DHT22;18022;45.492;11.548;2023-09-19T09:14:13;24.80;99.90
31391;DHT22;18022;45.492;11.548;2023-09-19T09:16:39;25.00;99.90
31391;DHT22;18022;45.492;11.548;2023-09-19T09:19:05;24.90;99.90
31391;DHT22;18022;45.492;11.548;2023-09-19T09:21:31;24.80;99.90
31391;DHT22;18022;45.492;11.548;2023-09-19T09:26:54;24.90;99.90
31391;DHT22;18022;45.492;11.548;2023-09-19T09:29:48;25.00;99.90
31391;DHT22;18022;45.492;11.548;2023-09-19T09:32:30;25.00;99.90
31391;DHT22;18022;45.492;11.548;2023-09-19T09:35:00;25.00;99.90
31391;DHT22;18022;45.492;11.548;2023-09-19T09:37:27;25.10;99.90
31391;DHT22;18022;45.492;11.548;2023-09-19T09:39:58;25.20;99.90
31391;DHT22;18022;45.492;11.548;2023-09-19T09:42:39;25.30;99.90
31391;DHT22;18022;45.492;11.548;2023-09-19T09:45:23;25.60;99.90
31391;DHT22;18022;45.492;11.548;2023-09-19T09:48:01;25.60;99.90
31391;DHT22;18022;45.492;11.548;2023-09-19T09:50:46;25.50;99.90
31391;DHT22;18022;45.492;11.548;2023-09-19T09:53:26;25.40;99.90
31391;DHT22;18022;45.492;11.548;2023-09-19T09:56:05;25.60;99.90
31391;DHT22;18022;45.492;11.548;2023-09-19T09:58:36;25.70;99.90
31391;DHT22;18022;45.492;11.548;2023-09-19T10:01:05;25.60;99.90
31391;DHT22;18022;45.492;11.548;2023-09-19T10:03:38;25.80;99.90
31391;DHT22;18022;45.492;11.548;2023-09-19T10:06:15;25.90;99.90
31391;DHT22;18022;45.492;11.548;2023-09-19T10:09:09;26.00;99.90
31391;DHT22;18022;45.492;11.548;2023-09-19T10:11:45;26.00;99.90
31391;DHT22;18022;45.492;11.548;2023-09-19T10:14:13;25.90;99.90
31391;DHT22;18022;45.492;11.548;2023-09-19T10:16:47;25.90;99.90
31391;DHT22;18022;45.492;11.548;2023-09-19T10:19:45;26.00;99.90
31391;DHT22;18022;45.492;11.548;2023-09-19T10:22:14;25.90;99.90
31391;DHT22;18022;45.492;11.548;2023-09-19T10:24:47;26.10;99.90
31391;DHT22;18022;45.492;11.548;2023-09-19T10:27:13;26.20;99.90
31391;DHT22;18022;45.492;11.548;2023-09-19T10:29:43;26.30;99.90
31391;DHT22;18022;45.492;11.548;2023-09-19T10:32:11;26.60;99.90
31391;DHT22;18022;45.492;11.548;2023-09-19T10:34:47;26.80;99.90
31391;DHT22;18022;45.492;11.548;2023-09-19T10:37:16;26.80;99.90
31391;DHT22;18022;45.492;11.548;2023-09-19T10:39:46;26.90;99.90
31391;DHT22;18022;45.492;11.548;2023-09-19T10:42:18;26.80;99.90
31391;DHT22;18022;45.492;11.548;2023-09-19T10:44:45;26.70;99.90
31391;DHT22;18022;45.492;11.548;2023-09-19T10:47:13;26.80;99.90
31391;DHT22;18022;45.492;11.548;2023-09-19T10:49:44;27.10;99.90
31391;DHT22;18022;45.492;11.548;2023-09-19T10:52:20;26.90;99.90
31391;DHT22;18022;45.492;11.548;2023-09-19T10:54:50;26.90;99.90
31391;DHT22;18022;45.492;11.548;2023-09-19T10:57:21;26.90;99.90
31391;DHT22;18022;45.492;11.548;2023-09-19T11:00:06;26.90;99.90
31391;DHT22;18022;45.492;11.548;2023-09-19T11:03:20;26.80;99.90
31391;DHT22;18022;45.492;11.548;2023-09-19T11:06:04;27.30;99.90
31391;DHT22;18022;45.492;11.548;2023-09-19T11:11:38;27.30;99.90
31391;DHT22;18022;45.492;11.548;2023-09-19T11:30:43;27.40;99.90
31391;DHT22;18022;45.492;11.548;2023-09-19T11:33:21;27.50;99.90
31391;DHT22;18022;45.492;11.548;2023-09-19T11:43:53;27.90;99.90
31391;DHT22;18022;45.492;11.548;2023-09-19T11:46:24;28.20;99.90
31391;DHT22;18022;45.492;11.548;2023-09-19T11:48:51;28.30;99.90
31391;DHT22;18022;45.492;11.548;2023-09-19T11:51:21;28.10;99.90
31391;DHT22;18022;45.492;11.548;2023-09-19T11:53:54;28.00;99.90
31391;DHT22;18022;45.492;11.548;2023-09-19T11:56:22;28.00;99.90
31391;DHT22;18022;45.492;11.548;2023-09-19T11:58:51;28.10;99.90
31391;DHT22;18022;45.492;11.548;2023-09-19T12:01:32;28.50;99.90
31391;DHT22;18022;45.492;11.548;2023-09-19T12:04:01;28.80;99.90
31391;DHT22;18022;45.492;11.548;2023-09-19T12:06:28;29.10;99.90
31391;DHT22;18022;45.492;11.548;2023-09-19T12:08:55;29.10;99.90
31391;DHT22;18022;45.492;11.548;2023-09-19T12:11:22;28.80;99.90
31391;DHT22;18022;45.492;11.548;2023-09-19T12:13:49;28.70;99.90
31391;DHT22;18022;45.492;11.548;2023-09-19T12:16:19;28.80;99.90
31391;DHT22;18022;45.492;11.548;2023-09-19T12:18:50;28.40;99.90
31391;DHT22;18022;45.492;11.548;2023-09-19T12:21:45;28.60;99.90
31391;DHT22;18022;45.492;11.548;2023-09-19T12:24:19;28.90;99.90
31391;DHT22;18022;45.492;11.548;2023-09-19T12:26:46;28.90;99.90
31391;DHT22;18022;45.492;11.548;2023-09-19T12:29:21;29.10;99.90
31391;DHT22;18022;45.492;11.548;2023-09-19T12:31:54;29.10;99.90
31391;DHT22;18022;45.492;11.548;2023-09-19T12:34:32;29.10;99.90
31391;DHT22;18022;45.492;11.548;2023-09-19T12:37:08;28.70;99.90
31391;DHT22;18022;45.492;11.548;2023-09-19T12:40:08;28.70;99.90
31391;DHT22;18022;45.492;11.548;2023-09-19T12:42:44;29.10;99.90
31391;DHT22;18022;45.492;11.548;2023-09-19T12:45:11;29.40;99.90
31391;DHT22;18022;45.492;11.548;2023-09-19T12:47:41;29.20;99.90
31391;DHT22;18022;45.492;11.548;2023-09-19T12:50:26;29.10;99.90
31391;DHT22;18022;45.492;11.548;2023-09-19T12:52:55;29.10;99.90
31391;DHT22;18022;45.492;11.548;2023-09-19T12:55:31;28.90;99.90
31391;DHT22;18022;45.492;11.548;2023-09-19T12:58:07;29.10;99.90
31391;DHT22;18022;45.492;11.548;2023-09-19T13:00:39;28.90;99.60
31391;DHT22;18022;45.492;11.548;2023-09-19T13:05:48;29.00;99.90
31391;DHT22;18022;45.492;11.548;2023-09-19T13:08:30;29.00;99.20
31391;DHT22;18022;45.492;11.548;2023-09-19T13:11:09;28.80;99.60
31391;DHT22;18022;45.492;11.548;2023-09-19T13:14:15;28.80;99.90
31391;DHT22;18022;45.492;11.548;2023-09-19T13:19:48;28.50;99.30
31391;DHT22;18022;45.492;11.548;2023-09-19T13:22:43;28.50;99.20
31391;DHT22;18022;45.492;11.548;2023-09-19T13:25:15;28.60;99.10
31391;DHT22;18022;45.492;11.548;2023-09-19T13:27:44;28.70;99.00
31391;DHT22;18022;45.492;11.548;2023-09-19T13:30:11;28.70;99.80
31391;DHT22;18022;45.492;11.548;2023-09-19T13:32:37;28.70;99.90
31391;DHT22;18022;45.492;11.548;2023-09-19T13:35:04;28.80;99.90
31391;DHT22;18022;45.492;11.548;2023-09-19T13:37:32;29.00;99.60
31391;DHT22;18022;45.492;11.548;2023-09-19T13:39:59;29.20;99.50
31391;DHT22;18022;45.492;11.548;2023-09-19T13:42:25;29.00;99.30
31391;DHT22;18022;45.492;11.548;2023-09-19T13:44:55;29.30;99.30
31391;DHT22;18022;45.492;11.548;2023-09-19T13:47:21;29.30;98.80
31391;DHT22;18022;45.492;11.548;2023-09-19T13:49:50;29.40;99.40
31391;DHT22;18022;45.492;11.548;2023-09-19T13:52:21;29.20;98.60
31391;DHT22;18022;45.492;11.548;2023-09-19T13:54:50;28.60;98.70
31391;DHT22;18022;45.492;11.548;2023-09-19T13:57:16;28.60;99.10
31391;DHT22;18022;45.492;11.548;2023-09-19T13:59:42;28.70;98.80
31391;DHT22;18022;45.492;11.548;2023-09-19T14:02:08;28.70;99.10
31391;DHT22;18022;45.492;11.548;2023-09-19T14:04:33;28.50;99.20
31391;DHT22;18022;45.492;11.548;2023-09-19T14:07:00;28.50;99.10
31391;DHT22;18022;45.492;11.548;2023-09-19T14:09:26;28.40;98.60
31391;DHT22;18022;45.492;11.548;2023-09-19T14:11:53;28.30;98.90
31391;DHT22;18022;45.492;11.548;2023-09-19T14:14:19;28.40;99.30
31391;DHT22;18022;45.492;11.548;2023-09-19T14:16:46;28.40;98.80
31391;DHT22;18022;45.492;11.548;2023-09-19T14:19:12;28.60;99.30
31391;DHT22;18022;45.492;11.548;2023-09-19T14:21:39;28.70;99.00
31391;DHT22;18022;45.492;11.548;2023-09-19T14:24:05;28.70;99.10
31391;DHT22;18022;45.492;11.548;2023-09-19T14:26:35;28.70;99.30
31391;DHT22;18022;45.492;11.548;2023-09-19T14:29:01;28.50;99.40
31391;DHT22;18022;45.492;11.548;2023-09-19T14:31:27;28.30;98.80
31391;DHT22;18022;45.492;11.548;2023-09-19T14:33:54;28.40;98.90
31391;DHT22;18022;45.492;11.548;2023-09-19T14:36:21;28.50;99.00
31391;DHT22;18022;45.492;11.548;2023-09-19T14:38:47;28.50;99.80
31391;DHT22;18022;45.492;11.548;2023-09-19T14:41:13;28.60;99.70
31391;DHT22;18022;45.492;11.548;2023-09-19T14:46:12;28.40;99.20
31391;DHT22;18022;45.492;11.548;2023-09-19T14:48:39;28.30;99.40
31391;DHT22;18022;45.492;11.548;2023-09-19T14:51:06;28.20;99.60
31391;DHT22;18022;45.492;11.548;2023-09-19T14:53:35;28.20;99.90
31391;DHT22;18022;45.492;11.548;2023-09-19T14:56:01;28.30;99.90
31391;DHT22;18022;45.492;11.548;2023-09-19T14:58:31;28.40;99.30
31391;DHT22;18022;45.492;11.548;2023-09-19T15:01:08;28.30;99.20
31391;DHT22;18022;45.492;11.548;2023-09-19T15:03:36;28.20;99.20
31391;DHT22;18022;45.492;11.548;2023-09-19T15:06:03;28.10;99.80
31391;DHT22;18022;45.492;11.548;2023-09-19T15:08:31;28.20;99.30
31391;DHT22;18022;45.492;11.548;2023-09-19T15:10:56;28.10;99.90
31391;DHT22;18022;45.492;11.548;2023-09-19T15:13:24;28.10;99.70
31391;DHT22;18022;45.492;11.548;2023-09-19T15:16:01;28.10;99.70
31391;DHT22;18022;45.492;11.548;2023-09-19T15:18:28;28.10;99.40
31391;DHT22;18022;45.492;11.548;2023-09-19T15:20:56;28.10;99.40
31391;DHT22;18022;45.492;11.548;2023-09-19T15:23:22;28.10;99.60
31391;DHT22;18022;45.492;11.548;2023-09-19T15:25:51;28.00;98.80
31391;DHT22;18022;45.492;11.548;2023-09-19T15:28:17;28.00;99.40
31391;DHT22;18022;45.492;11.548;2023-09-19T15:30:43;27.90;98.70
31391;DHT22;18022;45.492;11.548;2023-09-19T15:33:09;27.90;99.10
31391;DHT22;18022;45.492;11.548;2023-09-19T15:35:35;27.90;99.30
31391;DHT22;18022;45.492;11.548;2023-09-19T15:38:03;27.90;99.50
31391;DHT22;18022;45.492;11.548;2023-09-19T15:40:28;27.90;99.60
31391;DHT22;18022;45.492;11.548;2023-09-19T15:42:54;27.90;99.70
31391;DHT22;18022;45.492;11.548;2023-09-19T15:45:21;28.00;99.90
31391;DHT22;18022;45.492;11.548;2023-09-19T15:47:47;27.90;99.50
31391;DHT22;18022;45.492;11.548;2023-09-19T15:50:13;27.80;99.90
31391;DHT22;18022;45.492;11.548;2023-09-19T15:52:41;27.80;99.90
31391;DHT22;18022;45.492;11.548;2023-09-19T15:55:07;27.70;99.90
31391;DHT22;18022;45.492;11.548;2023-09-19T15:57:34;27.70;99.90
31391;DHT22;18022;45.492;11.548;2023-09-19T16:00:00;27.60;99.90
31391;DHT22;18022;45.492;11.548;2023-09-19T16:02:26;27.60;99.90
31391;DHT22;18022;45.492;11.548;2023-09-19T16:04:54;27.60;99.90
31391;DHT22;18022;45.492;11.548;2023-09-19T16:07:20;27.60;99.90
31391;DHT22;18022;45.492;11.548;2023-09-19T16:09:46;27.50;99.90
31391;DHT22;18022;45.492;11.548;2023-09-19T16:12:12;27.40;99.90
31391;DHT22;18022;45.492;11.548;2023-09-19T16:14:40;27.40;99.90
31391;DHT22;18022;45.492;11.548;2023-09-19T16:17:05;27.30;99.90
31391;DHT22;18022;45.492;11.548;2023-09-19T16:19:33;27.30;99.90
31391;DHT22;18022;45.492;11.548;2023-09-19T16:21:58;27.20;99.90
31391;DHT22;18022;45.492;11.548;2023-09-19T16:24:25;27.10;99.90